Time;durP1;ratioP1;P1;durP2;ratioP2;P2;SDS_P1;SDS_P2;PMS_P1;PMS_P2;Temp;Humidity;BMP_temperature;BMP_pressure;BME280_temperature;BME280_humidity;BME280_pressure;Samples;Min_cycle;Max_cycle;Signal;HPM_P1;HPM_P2
2023/05/01 00:00:47;;;;;;;7.63;4.60;;;;;;;12.47;100.00;101215.41;2081126;28;20246;-62
2023/05/01 00:01:48;;;;;;;11.23;5.67;;;;;;;13.57;100.00;101382.97;2079333;28;20281;-62
2023/05/01 00:02:48;;;;;;;7.27;4.97;;;;;;;13.55;100.00;101387.41;2073460;28;20417;-62
2023/05/01 00:03:49;;;;;;;6.03;4.67;;;;;;;13.56;100.00;101384.22;2081288;28;20273;-62
2023/05/01 00:04:49;;;;;;;6.30;4.77;;;;;;;13.57;100.00;101385.00;2081150;28;20190;-62
2023/05/01 00:05:49;;;;;;;6.43;5.10;;;;;;;13.58;100.00;101386.56;2080857;28;20245;-62
2023/05/01 00:06:50;;;;;;;5.67;4.90;;;;;;;13.57;100.00;101382.97;2081023;28;20532;-62
2023/05/01 00:07:51;;;;;;;7.43;5.20;;;;;;;13.57;100.00;101385.78;2079980;28;20650;-62
2023/05/01 00:08:51;;;;;;;5.93;4.87;;;;;;;13.56;100.00;101384.22;2081156;28;20255;-62
2023/05/01 00:09:51;;;;;;;5.93;5.27;;;;;;;13.55;100.00;101390.19;2081121;28;20172;-62
2023/05/01 00:10:52;;;;;;;7.20;5.80;;;;;;;13.53;100.00;101392.66;2081031;28;20198;-62
2023/05/01 00:11:53;;;;;;;5.67;4.80;;;;;;;12.83;100.00;101286.50;2081080;28;20268;-62
2023/05/01 00:12:53;;;;;;;5.90;4.97;;;;;;;13.54;100.00;101389.44;2081082;28;20189;-62
2023/05/01 00:13:53;;;;;;;5.53;4.90;;;;;;;13.52;100.00;101396.66;2081047;28;20188;-62
2023/05/01 00:14:54;;;;;;;8.70;5.47;;;;;;;13.48;100.00;101396.72;2081050;28;20668;-62
2023/05/01 00:15:54;;;;;;;8.23;5.77;;;;;;;13.49;100.00;101395.53;2080955;28;20195;-62
2023/05/01 00:16:55;;;;;;;7.17;5.27;;;;;;;13.48;100.00;101396.72;2080949;28;20667;-62
2023/05/01 00:17:55;;;;;;;13.93;5.50;;;;;;;13.45;100.00;101396.81;2080120;28;20190;-62
2023/05/01 00:18:56;;;;;;;6.90;6.20;;;;;;;13.30;100.00;101378.84;2080811;28;20667;-62
2023/05/01 00:19:57;;;;;;;6.57;5.13;;;;;;;12.52;100.00;101259.38;2081144;28;20238;-62
2023/05/01 00:20:57;;;;;;;6.70;5.23;;;;;;;13.42;100.00;101392.13;2081144;28;20201;-62
2023/05/01 00:21:57;;;;;;;7.27;5.10;;;;;;;13.42;100.00;101394.91;2081114;28;20187;-62
2023/05/01 00:22:58;;;;;;;5.63;4.53;;;;;;;13.41;100.00;101390.53;2080919;28;20193;-62
2023/05/01 00:23:58;;;;;;;5.37;4.53;;;;;;;13.40;100.00;101394.53;2081001;28;20188;-62
2023/05/01 00:24:58;;;;;;;6.87;5.10;;;;;;;13.36;100.00;101402.19;2080948;28;20265;-62
2023/05/01 00:25:59;;;;;;;9.23;5.13;;;;;;;13.33;100.00;101397.50;2080901;28;20181;-62
2023/05/01 00:26:59;;;;;;;5.33;4.80;;;;;;;13.31;100.00;101402.69;2080566;28;20184;-62
2023/05/01 00:28:00;;;;;;;5.50;4.67;;;;;;;13.29;100.00;101397.59;2080569;28;20173;-62
2023/05/01 00:29:00;;;;;;;12.47;6.00;;;;;;;13.25;100.00;101404.44;2081081;28;20223;-62
2023/05/01 00:30:01;;;;;;;10.10;5.23;;;;;;;13.23;100.00;101402.06;2080938;28;20177;-62
2023/05/01 00:31:01;;;;;;;10.77;5.20;;;;;;;13.16;100.00;101410.59;2080888;28;20285;-62
2023/05/01 00:32:02;;;;;;;10.50;5.30;;;;;;;13.13;100.00;101403.13;2080934;28;20521;-62
2023/05/01 00:33:02;;;;;;;10.67;5.17;;;;;;;13.12;100.00;101404.31;2080768;28;20197;-62
2023/05/01 00:34:04;;;;;;;8.47;5.33;;;;;;;13.13;100.00;101407.88;2080779;28;20173;-62
2023/05/01 00:35:04;;;;;;;8.03;6.60;;;;;;;13.08;100.00;101402.81;2080876;28;20201;-62
2023/05/01 00:36:05;;;;;;;6.97;5.23;;;;;;;12.96;100.00;101384.03;2080587;28;20421;-62
2023/05/01 00:37:06;;;;;;;7.53;6.80;;;;;;;13.03;100.00;101406.91;2080909;28;20177;-62
2023/05/01 00:38:06;;;;;;;7.80;5.77;;;;;;;12.65;100.00;101349.28;2080403;28;20186;-62
2023/05/01 00:39:07;;;;;;;8.83;5.87;;;;;;;13.01;100.00;101400.19;2080729;28;20189;-62
2023/05/01 00:40:08;;;;;;;10.30;5.93;;;;;;;13.01;100.00;101405.78;2080403;28;20573;-62
2023/05/01 00:41:08;;;;;;;11.10;5.30;;;;;;;13.02;100.00;101394.19;2080806;28;20238;-62
2023/05/01 00:42:09;;;;;;;9.60;5.67;;;;;;;13.01;100.00;101400.97;2080718;28;20235;-62
2023/05/01 00:43:10;;;;;;;13.33;6.00;;;;;;;12.96;100.00;101395.16;2080906;28;20194;-62
2023/05/01 00:44:11;;;;;;;12.03;6.00;;;;;;;13.00;100.00;101402.19;2080782;28;20178;-62
2023/05/01 00:45:11;;;;;;;11.53;6.10;;;;;;;12.80;100.00;101367.25;2081082;28;20420;-62
2023/05/01 00:46:12;;;;;;;12.23;6.33;;;;;;;12.99;100.00;101403.41;2080953;28;20194;-62
2023/05/01 00:47:13;;;;;;;10.03;6.50;;;;;;;12.50;100.00;101325.75;2080483;28;20200;-62
2023/05/01 00:48:14;;;;;;;11.33;5.93;;;;;;;12.91;100.00;101390.06;2080400;28;20821;-62
2023/05/01 00:49:14;;;;;;;9.30;6.13;;;;;;;12.95;100.00;101399.09;2080753;28;20741;-62
2023/05/01 00:50:15;;;;;;;8.93;6.20;;;;;;;12.95;100.00;101402.66;2080904;28;20194;-62
2023/05/01 00:51:16;;;;;;;7.00;5.90;;;;;;;12.92;100.00;101409.06;2080685;28;20189;-62
2023/05/01 00:52:16;;;;;;;9.33;6.50;;;;;;;12.94;100.00;101403.88;2080027;28;20427;-62
2023/05/01 00:53:17;;;;;;;8.73;5.83;;;;;;;12.91;100.00;101396.38;2080965;28;20255;-62
2023/05/01 00:54:18;;;;;;;6.73;6.07;;;;;;;12.91;100.00;101401.94;2080743;28;20196;-62
2023/05/01 00:55:20;;;;;;;6.97;6.30;;;;;;;12.88;100.00;101405.59;2080783;28;20454;-62
2023/05/01 00:56:21;;;;;;;8.57;6.10;;;;;;;12.45;100.00;101349.28;2080472;28;20446;-62
2023/05/01 00:57:21;;;;;;;11.30;7.60;;;;;;;12.80;100.00;101412.50;2080443;28;20454;-62
2023/05/01 00:58:22;;;;;;;5.87;4.90;;;;;;;12.73;100.00;101418.22;2080282;28;20199;-62
2023/05/01 00:59:23;;;;;;;6.43;5.67;;;;;;;12.53;100.00;101416.63;2080476;28;20559;-62
2023/05/01 01:00:23;;;;;;;7.50;5.33;;;;;;;12.45;100.00;101418.00;2080587;28;20206;-62
2023/05/01 01:01:24;;;;;;;6.37;5.77;;;;;;;12.43;100.00;101426.75;2080526;28;20555;-62
2023/05/01 01:02:25;;;;;;;5.73;5.17;;;;;;;12.45;100.00;101418.78;2080921;28;20218;-62
2023/05/01 01:03:26;;;;;;;7.63;6.43;;;;;;;12.44;100.00;101417.22;2080422;28;20534;-62
2023/05/01 01:04:30;;;;;;;7.97;5.80;;;;;;;12.45;100.00;101415.22;2080901;28;20523;-62
2023/05/01 01:05:34;;;;;;;7.13;5.90;;;;;;;12.28;100.00;101392.09;2080470;28;20191;-63
2023/05/01 01:07:10;;;;;;;7.87;5.80;;;;;;;12.45;100.00;101410.44;2080777;28;20459;-62
2023/05/01 01:08:22;;;;;;;9.00;6.10;;;;;;;12.42;100.00;101419.63;2063017;28;20441;-62
2023/05/01 01:10:14;;;;;;;7.37;6.43;;;;;;;12.34;100.00;101428.53;2071730;28;20412;-62
2023/05/01 01:11:35;;;;;;;7.93;7.23;;;;;;;12.18;100.00;101433.97;2063161;28;20455;-62
2023/05/01 01:12:59;;;;;;;8.30;7.47;;;;;;;12.14;100.00;101433.25;2079629;28;20418;-62
2023/05/01 01:14:10;;;;;;;7.63;6.80;;;;;;;12.12;100.00;101427.31;2080933;28;20406;-62
2023/05/01 01:15:32;;;;;;;44.33;9.73;;;;;;;12.15;100.00;101429.28;2080533;28;20900;-62
2023/05/01 01:17:22;;;;;;;10.47;9.20;;;;;;;12.16;100.00;101431.63;2080505;28;20404;-62
2023/05/01 01:18:47;;;;;;;40.57;10.27;;;;;;;12.16;100.00;101428.06;2071238;28;20996;-62
2023/05/01 01:20:09;;;;;;;23.77;10.30;;;;;;;12.16;100.00;101439.97;2070678;28;20434;-62
2023/05/01 01:21:30;;;;;;;40.47;10.57;;;;;;;12.16;100.00;101436.38;2080650;28;20504;-62
2023/05/01 01:22:35;;;;;;;41.23;11.07;;;;;;;12.16;100.00;101436.38;2080692;28;20447;-62
2023/05/01 01:24:08;;;;;;;39.20;10.37;;;;;;;12.15;100.00;101438.38;2080593;28;20836;-62
2023/05/01 01:25:39;;;;;;;17.47;7.67;;;;;;;12.15;100.00;101434.81;2079064;28;20504;-62
2023/05/01 01:26:45;;;;;;;17.83;8.27;;;;;;;12.12;100.00;101435.66;2080427;28;20771;-62
2023/05/01 01:27:57;;;;;;;19.40;8.60;;;;;;;12.13;100.00;101431.66;2079919;28;20941;-62
2023/05/01 01:29:29;;;;;;;20.67;8.97;;;;;;;12.14;100.00;101438.81;2080527;28;20415;-62
2023/05/01 01:30:30;;;;;;;20.50;8.53;;;;;;;12.13;100.00;101446.34;2080667;28;20857;-62
2023/05/01 01:31:59;;;;;;;22.63;8.50;;;;;;;12.14;100.00;101436.81;2080387;28;20417;-62
2023/05/01 01:33:37;;;;;;;19.17;8.30;;;;;;;12.16;100.00;101434.41;2080633;28;20198;-62
2023/05/01 01:34:46;;;;;;;22.53;8.50;;;;;;;12.19;100.00;101436.31;2080750;28;20410;-62
2023/05/01 01:35:53;;;;;;;17.33;8.40;;;;;;;12.20;100.00;101437.13;2080828;28;20442;-62
2023/05/01 01:36:59;;;;;;;16.10;8.47;;;;;;;12.20;100.00;101434.34;2080507;28;20411;-62
2023/05/01 01:38:01;;;;;;;22.07;8.83;;;;;;;12.18;100.00;101428.41;2079893;28;20578;-62
2023/05/01 01:39:31;;;;;;;16.97;8.53;;;;;;;12.20;100.00;101435.09;2080414;28;20435;-62
2023/05/01 01:40:39;;;;;;;20.13;8.73;;;;;;;12.19;100.00;101433.53;2071658;28;20530;-62
2023/05/01 01:41:41;;;;;;;20.03;8.20;;;;;;;12.16;100.00;101439.16;2080450;28;20930;-62
2023/05/01 01:42:48;;;;;;;12.43;8.13;;;;;;;12.16;100.00;101439.97;2080761;28;20503;-62
2023/05/01 01:44:00;;;;;;;13.43;7.47;;;;;;;12.05;100.00;101439.34;2072671;28;20408;-62
2023/05/01 01:45:09;;;;;;;17.50;8.20;;;;;;;11.94;100.00;101440.75;2080734;28;20442;-62
2023/05/01 01:46:10;;;;;;;15.53;7.10;;;;;;;11.95;100.00;101439.53;2080625;28;20404;-62
2023/05/01 01:47:12;;;;;;;21.43;8.40;;;;;;;11.16;100.00;101327.34;2080340;28;20446;-62
2023/05/01 01:48:19;;;;;;;13.23;8.03;;;;;;;11.91;100.00;101438.78;2080046;28;20817;-62
2023/05/01 01:49:26;;;;;;;14.30;8.33;;;;;;;11.85;100.00;101434.94;2080645;28;20436;-62
2023/05/01 01:50:28;;;;;;;18.17;9.33;;;;;;;11.88;100.00;101440.44;2080505;28;20433;-62
2023/05/01 01:51:29;;;;;;;13.13;9.67;;;;;;;11.90;100.00;101432.47;2080504;28;20781;-62
2023/05/01 01:52:32;;;;;;;11.10;9.30;;;;;;;11.91;100.00;101441.56;2080254;28;20432;-62
2023/05/01 01:53:36;;;;;;;10.90;9.80;;;;;;;11.92;100.00;101435.59;2080371;28;20444;-62
2023/05/01 01:54:51;;;;;;;10.23;9.13;;;;;;;11.91;100.00;101444.34;2080440;28;20821;-62
2023/05/01 01:55:53;;;;;;;13.00;9.13;;;;;;;11.89;100.00;101447.53;2080522;28;20478;-62
2023/05/01 01:56:57;;;;;;;12.13;9.00;;;;;;;11.88;100.00;101442.44;2080286;28;20447;-62
2023/05/01 01:57:59;;;;;;;9.77;8.03;;;;;;;11.88;100.00;101445.97;2079894;28;20412;-62
2023/05/01 01:59:00;;;;;;;8.63;7.73;;;;;;;11.91;100.00;101452.69;2080299;28;20411;-62
2023/05/01 02:00:01;;;;;;;9.67;7.87;;;;;;;11.87;100.00;101443.63;2080260;28;20508;-62
2023/05/01 02:01:03;;;;;;;10.67;8.70;;;;;;;11.90;100.00;101451.13;2080835;28;20415;-62
2023/05/01 02:02:04;;;;;;;10.13;8.80;;;;;;;10.92;100.00;101300.75;2080481;28;20664;-62
2023/05/01 02:03:05;;;;;;;10.33;8.97;;;;;;;11.80;100.00;101429.84;2080509;28;20432;-62
2023/05/01 02:04:07;;;;;;;9.23;8.33;;;;;;;11.91;100.00;101447.94;2080474;28;20540;-62
2023/05/01 02:05:12;;;;;;;9.10;8.03;;;;;;;10.59;100.00;101240.63;2080414;28;20467;-62
2023/05/01 02:06:14;;;;;;;14.73;8.70;;;;;;;11.93;100.00;101447.50;2080227;28;20477;-62
2023/05/01 02:07:16;;;;;;;11.17;8.67;;;;;;;11.94;100.00;101443.53;2079942;28;20435;-62
2023/05/01 02:08:18;;;;;;;15.63;9.47;;;;;;;11.97;100.00;101451.78;2079848;28;20816;-62
2023/05/01 02:09:20;;;;;;;16.03;9.07;;;;;;;11.91;100.00;101436.81;2080424;28;20803;-62
2023/05/01 02:10:21;;;;;;;16.80;8.90;;;;;;;11.94;100.00;101443.53;2080710;28;20415;-62
2023/05/01 02:11:24;;;;;;;12.70;8.47;;;;;;;11.94;100.00;101444.28;2080596;28;20478;-62
2023/05/01 02:12:25;;;;;;;9.37;7.83;;;;;;;11.91;100.00;101447.13;2080160;28;20512;-62
2023/05/01 02:13:30;;;;;;;10.87;7.67;;;;;;;11.86;100.00;101447.59;2080383;28;20439;-62
2023/05/01 02:14:32;;;;;;;8.93;7.73;;;;;;;11.87;100.00;101466.63;2080454;28;21068;-62
2023/05/01 02:15:33;;;;;;;9.73;7.80;;;;;;;11.87;100.00;101449.19;2080382;28;20469;-62
2023/05/01 02:16:35;;;;;;;9.37;7.70;;;;;;;11.89;100.00;101482.88;2080466;28;20439;-62
2023/05/01 02:17:39;;;;;;;9.53;7.80;;;;;;;11.81;100.00;101439.75;2079517;28;20458;-62
2023/05/01 02:18:40;;;;;;;8.87;7.97;;;;;;;11.91;100.00;101458.25;2080457;28;20440;-62
2023/05/01 02:19:42;;;;;;;9.87;8.20;;;;;;;11.84;100.00;101461.91;2080296;28;20460;-62
2023/05/01 02:20:44;;;;;;;8.77;7.90;;;;;;;11.82;100.00;101467.09;2080305;28;20219;-62
2023/05/01 02:21:45;;;;;;;9.30;8.13;;;;;;;11.85;100.00;101463.50;2080460;28;20419;-62
2023/05/01 02:22:47;;;;;;;11.23;8.70;;;;;;;11.68;100.00;101459.00;2080410;28;20527;-62
2023/05/01 02:23:47;;;;;;;9.77;8.23;;;;;;;11.78;100.00;101471.16;2080561;28;20450;-62
2023/05/01 02:24:48;;;;;;;9.83;8.60;;;;;;;11.68;100.00;101467.31;2080312;28;20443;-62
2023/05/01 02:25:52;;;;;;;9.10;8.20;;;;;;;11.61;100.00;101467.44;2080413;28;20576;-62
2023/05/01 02:27:06;;;;;;;12.13;8.37;;;;;;;11.58;100.00;101481.34;2080249;28;20658;-62
2023/05/01 02:28:13;;;;;;;11.23;7.50;;;;;;;11.55;100.00;101482.16;2079614;28;20805;-62
2023/05/01 02:29:13;;;;;;;11.80;8.50;;;;;;;11.37;100.00;101440.00;2080184;28;20872;-62
2023/05/01 02:30:14;;;;;;;10.53;7.27;;;;;;;11.52;100.00;101466.38;2080471;28;20432;-62
2023/05/01 02:31:14;;;;;;;8.37;7.57;;;;;;;11.52;100.00;101469.91;2081714;28;20677;-62
2023/05/01 02:32:15;;;;;;;8.60;7.70;;;;;;;11.52;100.00;101472.69;2081749;28;20655;-62
2023/05/01 02:33:15;;;;;;;9.40;8.50;;;;;;;11.42;100.00;101447.88;2081942;28;20663;-62
2023/05/01 02:34:15;;;;;;;9.23;8.23;;;;;;;11.53;100.00;101467.94;2081704;28;20235;-62
2023/05/01 02:35:16;;;;;;;8.63;7.83;;;;;;;11.50;100.00;101474.31;2081637;28;20196;-62
2023/05/01 02:36:17;;;;;;;13.83;8.90;;;;;;;11.46;100.00;101463.25;2081854;28;20203;-62
2023/05/01 02:37:17;;;;;;;9.93;8.93;;;;;;;11.54;100.00;101477.81;2081423;28;20223;-62
2023/05/01 02:38:18;;;;;;;9.37;8.47;;;;;;;11.54;100.00;101478.59;2081248;28;20180;-62
2023/05/01 02:39:18;;;;;;;9.87;8.87;;;;;;;11.55;100.00;101473.84;2081703;28;20748;-62
2023/05/01 02:40:19;;;;;;;9.33;8.43;;;;;;;11.54;100.00;101473.03;2081731;28;20284;-62
2023/05/01 02:41:21;;;;;;;9.30;8.40;;;;;;;11.55;100.00;101479.38;2081841;28;20177;-62
2023/05/01 02:42:24;;;;;;;9.20;8.27;;;;;;;11.54;100.00;101472.28;2081911;28;20192;-62
2023/05/01 02:43:27;;;;;;;9.93;8.27;;;;;;;10.63;100.00;101338.38;2081702;28;20446;-62
2023/05/01 02:44:35;;;;;;;9.13;8.10;;;;;;;11.51;100.00;101485.00;2081955;28;20436;-62
2023/05/01 02:45:40;;;;;;;9.73;7.97;;;;;;;11.47;100.00;101475.16;2081789;28;20435;-62
2023/05/01 02:46:45;;;;;;;9.17;8.20;;;;;;;11.07;100.00;101412.28;2081740;28;20646;-61
2023/05/01 02:47:50;;;;;;;9.30;7.83;;;;;;;11.50;100.00;101479.84;2080896;28;20517;-61
2023/05/01 02:48:52;;;;;;;9.20;8.30;;;;;;;11.52;100.00;101483.78;2081683;28;20836;-62
2023/05/01 02:49:54;;;;;;;9.03;8.13;;;;;;;10.52;100.00;101329.44;2081674;28;20436;-62
2023/05/01 02:50:56;;;;;;;9.23;7.80;;;;;;;11.51;100.00;101485.00;2081689;28;20510;-62
2023/05/01 02:51:57;;;;;;;11.00;8.50;;;;;;;11.51;100.00;101485.00;2081643;28;20786;-62
2023/05/01 02:52:59;;;;;;;8.73;7.77;;;;;;;11.35;100.00;101473.72;2080899;28;20497;-62
2023/05/01 02:53:59;;;;;;;8.47;7.57;;;;;;;11.53;100.00;101490.13;2081347;28;20280;-62
2023/05/01 02:55:02;;;;;;;7.73;6.93;;;;;;;10.99;100.00;101411.59;2081649;28;20452;-62
2023/05/01 02:56:03;;;;;;;8.50;7.70;;;;;;;11.48;100.00;101498.94;2081647;28;20207;-62
2023/05/01 02:57:04;;;;;;;9.20;7.30;;;;;;;11.38;100.00;101506.19;2081212;28;20482;-62
2023/05/01 02:58:04;;;;;;;9.43;7.70;;;;;;;11.36;100.00;101500.28;2081042;28;20496;-62
2023/05/01 02:59:05;;;;;;;8.00;7.30;;;;;;;11.36;100.00;101496.69;2081718;28;20194;-62
2023/05/01 03:00:08;;;;;;;8.23;6.60;;;;;;;11.36;100.00;101505.81;2081550;28;20232;-62
2023/05/01 03:01:09;;;;;;;9.03;7.67;;;;;;;11.34;100.00;101505.47;2081682;28;20173;-62
2023/05/01 03:02:10;;;;;;;9.03;7.43;;;;;;;11.33;100.00;101506.63;2081374;28;20477;-62
2023/05/01 03:03:10;;;;;;;7.93;6.93;;;;;;;11.33;100.00;101509.41;2081810;28;20477;-62
2023/05/01 03:04:11;;;;;;;8.40;7.60;;;;;;;11.28;100.00;101509.88;2081620;28;20185;-62
2023/05/01 03:05:12;;;;;;;8.40;7.60;;;;;;;11.26;100.00;101508.72;2081629;28;20544;-62
2023/05/01 03:06:13;;;;;;;8.87;7.97;;;;;;;11.27;100.00;101511.09;2081433;28;20228;-62
2023/05/01 03:07:13;;;;;;;9.37;7.50;;;;;;;11.29;100.00;101519.00;2081271;28;20437;-62
2023/05/01 03:08:13;;;;;;;11.40;8.00;;;;;;;11.30;100.00;101515.00;2081060;28;20645;-62
2023/05/01 03:09:14;;;;;;;7.93;7.17;;;;;;;11.34;100.00;101521.31;2081481;28;20883;-62
2023/05/01 03:10:15;;;;;;;8.00;7.20;;;;;;;11.36;100.00;101519.69;2081620;28;20700;-62
2023/05/01 03:11:15;;;;;;;8.27;6.83;;;;;;;11.42;100.00;101514.47;2081720;28;20691;-62
2023/05/01 03:12:16;;;;;;;7.83;7.03;;;;;;;11.02;100.00;101451.56;2081336;28;20176;-62
2023/05/01 03:13:16;;;;;;;8.30;7.03;;;;;;;11.40;100.00;101509.34;2081441;28;20200;-62
2023/05/01 03:14:16;;;;;;;8.43;6.70;;;;;;;11.42;100.00;101512.47;2081608;28;20571;-62
2023/05/01 03:15:17;;;;;;;8.57;7.03;;;;;;;11.39;100.00;101512.53;2081514;28;20197;-62
2023/05/01 03:16:17;;;;;;;9.50;6.80;;;;;;;11.34;100.00;101510.22;2081516;28;20281;-62
2023/05/01 03:17:18;;;;;;;9.73;6.77;;;;;;;11.34;100.00;101504.66;2080927;28;20230;-62
2023/05/01 03:18:19;;;;;;;9.23;6.60;;;;;;;11.27;100.00;101521.41;2080981;28;20229;-62
2023/05/01 03:19:19;;;;;;;7.83;7.00;;;;;;;11.23;100.00;101523.44;2081731;28;20187;-62
2023/05/01 03:20:20;;;;;;;12.13;7.17;;;;;;;10.75;100.00;101439.59;2081585;28;20223;-62
2023/05/01 03:21:20;;;;;;;29.37;8.77;;;;;;;11.25;100.00;101521.03;2081363;28;20174;-62
2023/05/01 03:22:21;;;;;;;19.73;8.17;;;;;;;11.20;100.00;101510.38;2081710;28;20196;-62
2023/05/01 03:23:22;;;;;;;18.47;7.43;;;;;;;11.26;100.00;101517.84;2076895;28;20180;-62
2023/05/01 03:24:23;;;;;;;18.47;7.47;;;;;;;10.43;100.00;101389.28;2078712;28;20230;-62
2023/05/01 03:25:23;;;;;;;16.83;7.20;;;;;;;11.32;100.00;101520.94;2078783;28;21032;-62
2023/05/01 03:26:24;;;;;;;17.70;7.80;;;;;;;11.39;100.00;101523.63;2074634;28;20204;-62
2023/05/01 03:27:24;;;;;;;13.20;7.30;;;;;;;11.44;100.00;101525.94;2080836;28;20389;-62
2023/05/01 03:28:24;;;;;;;33.63;8.70;;;;;;;11.48;100.00;101515.59;2073189;28;20235;-62
2023/05/01 03:29:26;;;;;;;56.77;12.07;;;;;;;10.98;100.00;101446.09;2080669;28;20193;-62
2023/05/01 03:32:22;;;;;;;23.53;7.30;;;;;;;11.19;100.00;101475.53;2066603;28;20838;-62
2023/05/01 03:33:23;;;;;;;13.73;6.50;;;;;;;11.56;100.00;101526.16;2080470;28;20431;-62
2023/05/01 03:34:23;;;;;;;20.27;7.07;;;;;;;11.58;100.00;101529.31;2078599;28;20195;-62
2023/05/01 03:35:24;;;;;;;7.87;5.87;;;;;;;11.64;100.00;101535.22;2081337;28;20701;-62
2023/05/01 03:36:24;;;;;;;18.90;7.13;;;;;;;11.60;100.00;101532.50;2078442;28;20559;-62
2023/05/01 03:37:25;;;;;;;17.40;6.63;;;;;;;11.62;100.00;101534.84;2075006;28;20720;-62
2023/05/01 03:38:26;;;;;;;9.60;6.40;;;;;;;11.68;100.00;101539.50;2081011;28;20271;-62
2023/05/01 03:39:26;;;;;;;7.63;5.70;;;;;;;11.72;100.00;101531.91;2081023;28;20584;-62
2023/05/01 03:40:26;;;;;;;12.20;6.03;;;;;;;11.71;100.00;101540.66;2081355;28;20460;-62
2023/05/01 03:41:27;;;;;;;8.30;6.07;;;;;;;11.68;100.00;101538.75;2081162;28;20213;-62
2023/05/01 03:42:27;;;;;;;8.83;6.20;;;;;;;11.66;100.00;101538.34;2080665;28;20658;-62
2023/05/01 03:43:28;;;;;;;10.33;6.50;;;;;;;11.65;100.00;101537.59;2081242;28;20200;-62
2023/05/01 03:44:28;;;;;;;10.60;6.43;;;;;;;11.66;100.00;101541.94;2081254;28;20219;-62
2023/05/01 03:45:28;;;;;;;10.27;6.60;;;;;;;11.71;100.00;101540.66;2081138;28;20177;-62
2023/05/01 03:46:29;;;;;;;10.80;6.50;;;;;;;11.72;100.00;101545.81;2081177;28;20238;-62
2023/05/01 03:47:30;;;;;;;10.07;6.73;;;;;;;11.77;100.00;101544.53;2080311;28;20181;-62
2023/05/01 03:48:30;;;;;;;8.93;7.20;;;;;;;11.64;100.00;101519.34;2081305;28;20202;-62
2023/05/01 03:49:30;;;;;;;9.00;6.40;;;;;;;11.81;100.00;101551.63;2075814;28;20185;-62
2023/05/01 03:50:31;;;;;;;7.70;6.47;;;;;;;11.86;100.00;101550.38;2079406;28;20334;-62
2023/05/01 03:51:31;;;;;;;9.17;6.70;;;;;;;11.89;100.00;101549.53;2081057;28;20212;-62
2023/05/01 03:52:32;;;;;;;7.87;6.40;;;;;;;11.89;100.00;101550.31;2081202;28;20221;-62
2023/05/01 03:53:32;;;;;;;9.47;6.33;;;;;;;11.94;100.00;101555.41;2080953;28;20566;-62
2023/05/01 03:54:33;;;;;;;7.67;5.87;;;;;;;11.96;100.00;101558.56;2080397;28;20764;-62
2023/05/01 03:55:33;;;;;;;10.90;6.50;;;;;;;11.98;100.00;101561.69;2080423;28;20696;-62
2023/05/01 03:56:35;;;;;;;12.63;6.60;;;;;;;12.02;100.00;101554.09;2081304;28;20172;-62
2023/05/01 03:57:35;;;;;;;17.23;6.57;;;;;;;12.04;100.00;101565.56;2080334;28;20611;-62
2023/05/01 03:58:36;;;;;;;12.10;6.93;;;;;;;11.36;100.00;101455.88;2081006;28;20435;-62
2023/05/01 03:59:36;;;;;;;16.07;7.17;;;;;;;12.10;100.00;101571.44;2075595;28;20189;-62
2023/05/01 04:00:37;;;;;;;14.03;7.30;;;;;;;11.93;100.00;101537.16;2077133;28;20194;-62
2023/05/01 04:01:38;;;;;;;13.03;6.97;;;;;;;12.14;100.00;101567.41;2078171;28;20180;-62
2023/05/01 04:02:39;;;;;;;15.63;6.63;;;;;;;12.14;100.00;101572.19;2074189;28;20641;-62
2023/05/01 04:03:39;;;;;;;12.43;6.97;;;;;;;12.16;100.00;101567.00;2072870;28;20420;-62
2023/05/01 04:04:40;;;;;;;12.23;6.73;;;;;;;12.14;100.00;101566.63;2072758;28;20311;-62
2023/05/01 04:05:40;;;;;;;11.37;6.63;;;;;;;11.42;100.00;101461.75;2072704;28;20273;-63
2023/05/01 04:06:40;;;;;;;15.57;7.20;;;;;;;12.21;100.00;101575.66;2078967;28;20193;-62
2023/05/01 04:07:41;;;;;;;14.97;6.80;;;;;;;12.20;100.00;101565.72;2074915;28;20246;-62
2023/05/01 04:08:42;;;;;;;15.30;7.90;;;;;;;12.27;100.00;101568.41;2073288;28;20548;-62
2023/05/01 04:09:42;;;;;;;14.37;7.77;;;;;;;12.30;100.00;101577.91;2073785;28;20192;-62
2023/05/01 04:10:43;;;;;;;13.50;7.40;;;;;;;12.30;100.00;101577.91;2072493;28;20186;-62
2023/05/01 04:11:45;;;;;;;14.83;6.70;;;;;;;12.31;100.00;101577.47;2072825;28;20190;-62
2023/05/01 04:12:45;;;;;;;18.20;7.00;;;;;;;12.31;100.00;101579.47;2072351;28;20213;-62
2023/05/01 04:13:46;;;;;;;11.73;6.47;;;;;;;12.30;100.00;101578.66;2073006;28;20489;-62
2023/05/01 04:14:46;;;;;;;9.93;6.20;;;;;;;12.30;100.00;101575.88;2073092;28;20575;-62
2023/05/01 04:15:47;;;;;;;10.23;5.80;;;;;;;12.34;100.00;101581.41;2072206;28;20210;-62
2023/05/01 04:16:48;;;;;;;10.97;6.00;;;;;;;12.32;100.00;101578.25;2073723;28;20190;-62
2023/05/01 04:17:48;;;;;;;13.73;5.77;;;;;;;11.32;100.00;101421.06;2071492;28;20652;-62
2023/05/01 04:18:49;;;;;;;11.80;5.60;;;;;;;12.34;100.00;101578.63;2072668;28;20197;-62
2023/05/01 04:19:50;;;;;;;6.17;5.40;;;;;;;11.99;100.00;101527.16;2072693;28;20190;-62
2023/05/01 04:20:51;;;;;;;8.37;5.90;;;;;;;12.35;100.00;101580.97;2072578;28;20176;-62
2023/05/01 04:21:51;;;;;;;10.77;5.97;;;;;;;12.37;100.00;101586.09;2072802;28;20211;-62
2023/05/01 04:22:51;;;;;;;7.67;6.03;;;;;;;12.41;100.00;101584.84;2073324;28;20648;-62
2023/05/01 04:23:52;;;;;;;8.17;6.13;;;;;;;12.43;100.00;101588.00;2073626;28;20692;-62
2023/05/01 04:24:53;;;;;;;7.90;6.03;;;;;;;12.43;100.00;101590.78;2072441;28;20182;-62
2023/05/01 04:25:53;;;;;;;8.47;6.27;;;;;;;12.45;100.00;101596.69;2072010;28;20184;-62
2023/05/01 04:26:53;;;;;;;9.80;6.37;;;;;;;12.44;100.00;101584.00;2072048;28;20193;-62
2023/05/01 04:27:54;;;;;;;10.53;6.60;;;;;;;12.50;100.00;101587.88;2072260;28;20192;-62
2023/05/01 04:28:54;;;;;;;9.37;6.57;;;;;;;12.53;100.00;101594.59;2072645;28;20223;-62
2023/05/01 04:29:56;;;;;;;8.67;6.40;;;;;;;12.53;100.00;101600.13;2072879;28;20222;-62
2023/05/01 04:30:56;;;;;;;9.20;6.40;;;;;;;12.47;100.00;101583.16;2073523;28;20287;-62
2023/05/01 04:31:57;;;;;;;11.23;6.90;;;;;;;12.15;100.00;101532.84;2072412;28;20442;-62
2023/05/01 04:32:57;;;;;;;9.93;6.57;;;;;;;12.58;100.00;101594.09;2072464;28;20203;-62
2023/05/01 04:33:58;;;;;;;13.00;7.10;;;;;;;12.56;100.00;101588.97;2072757;28;20276;-62
2023/05/01 04:34:58;;;;;;;11.17;6.60;;;;;;;12.57;100.00;101585.00;2072990;28;20207;-62
2023/05/01 04:35:59;;;;;;;17.77;6.30;;;;;;;12.64;100.00;101597.97;2073437;28;20187;-62
2023/05/01 04:37:00;;;;;;;10.10;6.27;;;;;;;12.22;100.00;101531.94;2072460;28;20206;-62
2023/05/01 04:38:01;;;;;;;10.13;5.80;;;;;;;12.62;100.00;101598.41;2071848;28;20183;-62
2023/05/01 04:39:01;;;;;;;8.57;6.57;;;;;;;12.57;100.00;101604.47;2072397;28;20437;-62
2023/05/01 04:40:02;;;;;;;8.33;6.43;;;;;;;12.52;100.00;101599.38;2072147;28;20689;-62
2023/05/01 04:41:04;;;;;;;7.90;6.23;;;;;;;12.44;100.00;101595.13;2072847;28;20204;-62
2023/05/01 04:42:05;;;;;;;10.00;6.60;;;;;;;12.37;100.00;101602.78;2074631;28;20699;-62
2023/05/01 04:43:05;;;;;;;7.07;6.37;;;;;;;12.29;100.00;101602.09;2073289;28;20446;-62
2023/05/01 04:44:06;;;;;;;8.40;6.87;;;;;;;12.36;100.00;101592.88;2073262;28;20223;-62
2023/05/01 04:45:06;;;;;;;7.03;6.40;;;;;;;12.41;100.00;101600.75;2072532;28;20250;-62
2023/05/01 04:46:07;;;;;;;10.80;6.53;;;;;;;12.42;100.00;101603.09;2072343;28;20210;-62
2023/05/01 04:47:07;;;;;;;8.70;6.50;;;;;;;12.43;100.00;101596.34;2072064;28;20247;-62
2023/05/01 04:48:07;;;;;;;9.07;7.00;;;;;;;12.50;100.00;101607.34;2072079;28;21508;-62
2023/05/01 04:49:08;;;;;;;8.97;6.63;;;;;;;12.17;100.00;101538.00;2073034;28;20240;-62
2023/05/01 04:50:09;;;;;;;10.03;6.30;;;;;;;12.57;100.00;101606.44;2073112;28;20176;-62
2023/05/01 04:51:09;;;;;;;9.87;6.30;;;;;;;12.60;100.00;101606.38;2073368;28;20546;-62